Time;durP1;ratioP1;P1;durP2;ratioP2;P2;SDS_P1;SDS_P2;PMS_P1;PMS_P2;Temp;Humidity;BMP_temperature;BMP_pressure;BME280_temperature;BME280_humidity;BME280_pressure;Samples;Min_cycle;Max_cycle;Signal;HPM_P1;HPM_P2
2022/10/24 00:01:32;;;;;;;10.65;1.40;;;20.10;66.20;;;;;;7362081;19;20130;-76
2022/10/24 00:04:03;;;;;;;14.32;1.50;;;20.10;66.10;;;;;;7365138;19;20042;-76
2022/10/24 00:06:32;;;;;;;9.25;1.50;;;20.10;66.20;;;;;;7367035;19;20063;-77
2022/10/24 00:09:01;;;;;;;6.35;1.05;;;20.20;66.30;;;;;;7371032;19;20017;-76
2022/10/24 00:11:30;;;;;;;9.00;1.15;;;20.20;66.20;;;;;;7366885;19;20025;-76
2022/10/24 00:13:59;;;;;;;17.17;1.63;;;20.20;66.20;;;;;;7389431;19;20029;-76
2022/10/24 00:16:28;;;;;;;9.63;1.70;;;20.20;66.10;;;;;;7368133;19;20082;-75
2022/10/24 00:18:57;;;;;;;11.00;1.67;;;20.10;66.10;;;;;;7374809;19;20509;-76
2022/10/24 00:21:29;;;;;;;12.88;1.63;;;20.20;66.30;;;;;;7368842;19;20022;-76
2022/10/24 00:23:58;;;;;;;8.95;1.50;;;20.10;66.30;;;;;;7366370;19;20059;-76
2022/10/24 00:26:27;;;;;;;11.38;1.77;;;20.10;66.30;;;;;;7385027;19;20022;-76
2022/10/24 00:28:55;;;;;;;17.55;1.75;;;20.10;66.60;;;;;;7386260;19;20018;-77
2022/10/24 00:31:24;;;;;;;13.55;1.42;;;20.10;66.60;;;;;;7361820;19;20019;-77
2022/10/24 00:33:53;;;;;;;14.25;1.70;;;20.10;66.60;;;;;;7367333;19;20014;-76
2022/10/24 00:36:25;;;;;;;9.48;1.45;;;20.00;66.70;;;;;;7369765;19;20082;-76
2022/10/24 00:38:57;;;;;;;8.65;1.50;;;20.00;67.70;;;;;;7368913;19;20013;-76
2022/10/24 00:41:27;;;;;;;14.02;1.52;;;20.00;67.00;;;;;;7389349;19;20457;-76
2022/10/24 00:44:28;;;;;;;6.82;1.17;;;20.00;66.90;;;;;;7367704;19;20078;-76
2022/10/24 00:47:00;;;;;;;13.95;1.48;;;19.90;67.00;;;;;;7363608;19;20090;-76
2022/10/24 00:49:35;;;;;;;13.23;1.80;;;20.00;67.00;;;;;;7366789;19;20010;-76
2022/10/24 00:52:07;;;;;;;12.48;1.65;;;19.90;67.00;;;;;;7368310;19;20023;-76
2022/10/24 00:54:40;;;;;;;13.15;1.83;;;19.90;67.20;;;;;;7370823;19;20461;-76
2022/10/24 00:57:16;;;;;;;17.65;1.90;;;19.80;67.20;;;;;;7371515;19;20448;-76
2022/10/24 00:59:49;;;;;;;10.80;1.77;;;19.90;67.30;;;;;;7373838;19;20129;-76
2022/10/24 01:02:18;;;;;;;10.88;1.98;;;19.90;67.30;;;;;;7396846;19;20089;-76
2022/10/24 01:04:47;;;;;;;10.35;1.58;;;19.70;67.50;;;;;;7372224;19;20032;-76
2022/10/24 01:07:26;;;;;;;10.23;1.67;;;19.80;67.70;;;;;;7374102;19;20014;-75
2022/10/24 01:10:35;;;;;;;17.88;1.75;;;19.70;67.80;;;;;;7374382;19;20043;-76
2022/10/24 01:13:14;;;;;;;15.55;1.70;;;19.60;68.30;;;;;;7372416;19;20018;-76
2022/10/24 01:15:48;;;;;;;11.63;1.80;;;19.50;68.60;;;;;;7371787;19;20090;-76
2022/10/24 01:18:23;;;;;;;15.02;2.50;;;19.60;68.50;;;;;;7374105;19;20018;-76
2022/10/24 01:21:23;;;;;;;15.55;1.90;;;19.60;68.60;;;;;;7375662;19;20031;-76
2022/10/24 01:24:04;;;;;;;10.95;2.00;;;19.60;68.60;;;;;;7374775;19;20824;-76
2022/10/24 01:27:12;;;;;;;13.80;2.17;;;19.60;68.80;;;;;;7371618;19;20317;-76
2022/10/24 01:29:52;;;;;;;15.40;2.25;;;19.60;68.90;;;;;;7370627;19;20375;-76
2022/10/24 01:32:32;;;;;;;17.48;2.10;;;19.60;68.90;;;;;;7392165;19;20015;-76
2022/10/24 01:35:06;;;;;;;18.27;1.73;;;19.40;69.70;;;;;;7374293;19;20010;-76
2022/10/24 01:37:42;;;;;;;9.82;1.70;;;19.50;69.10;;;;;;7373451;19;20024;-76
2022/10/24 01:40:14;;;;;;;18.95;2.13;;;19.60;69.20;;;;;;7373398;19;20602;-75
2022/10/24 01:42:45;;;;;;;22.33;2.70;;;19.50;69.20;;;;;;7368926;19;20071;-75
2022/10/24 01:45:21;;;;;;;23.15;2.40;;;19.60;69.20;;;;;;7369958;19;20014;-76
2022/10/24 01:47:54;;;;;;;17.30;2.03;;;19.60;68.90;;;;;;7370895;19;20732;-76
2022/10/24 01:50:26;;;;;;;15.35;2.22;;;19.60;69.00;;;;;;7390590;19;20473;-76
2022/10/24 01:52:57;;;;;;;10.68;2.00;;;19.60;68.90;;;;;;7369112;19;20014;-76
2022/10/24 01:55:26;;;;;;;13.52;1.67;;;19.70;68.90;;;;;;7369418;19;20022;-76
2022/10/24 01:57:54;;;;;;;20.65;2.63;;;19.70;68.80;;;;;;7370941;19;20015;-76
2022/10/24 02:00:26;;;;;;;19.83;2.15;;;19.70;68.80;;;;;;7370719;19;20448;-76
2022/10/24 02:02:58;;;;;;;17.88;2.47;;;19.70;68.70;;;;;;7367566;19;20018;-76
2022/10/24 02:05:32;;;;;;;19.73;2.58;;;19.70;68.80;;;;;;7391917;19;20082;-76
2022/10/24 02:08:06;;;;;;;17.55;2.50;;;19.50;69.10;;;;;;7393929;19;20019;-76
2022/10/24 02:10:40;;;;;;;14.60;2.10;;;19.60;69.10;;;;;;7370711;19;20021;-76
2022/10/24 02:13:15;;;;;;;15.50;1.80;;;19.70;68.90;;;;;;7372232;19;20331;-76
2022/10/24 02:15:51;;;;;;;17.45;2.65;;;19.70;68.90;;;;;;7373680;19;20022;-76
2022/10/24 02:18:20;;;;;;;20.30;3.63;;;19.60;69.10;;;;;;7373818;19;20107;-76
2022/10/24 02:20:55;;;;;;;18.98;3.13;;;19.60;69.00;;;;;;7376857;19;20109;-76
2022/10/24 02:23:32;;;;;;;16.05;2.40;;;19.70;69.10;;;;;;7401993;19;20015;-76
2022/10/24 02:26:04;;;;;;;19.77;3.30;;;19.40;69.70;;;;;;7374443;19;20610;-76
2022/10/24 02:28:39;;;;;;;21.25;3.38;;;19.50;69.50;;;;;;7372278;19;20085;-76
2022/10/24 02:31:15;;;;;;;14.13;2.53;;;19.50;69.30;;;;;;7372074;19;20098;-76
2022/10/24 02:33:45;;;;;;;17.67;2.33;;;19.50;69.40;;;;;;7372375;19;20018;-76
2022/10/24 02:36:18;;;;;;;32.38;2.72;;;19.60;69.30;;;;;;7371112;19;20412;-76
2022/10/24 02:38:50;;;;;;;21.20;2.15;;;19.40;69.70;;;;;;7371766;19;20154;-76
2022/10/24 02:41:23;;;;;;;19.13;2.50;;;19.40;69.60;;;;;;7392682;19;20018;-76
2022/10/24 02:43:53;;;;;;;21.85;2.30;;;19.40;69.60;;;;;;7375167;19;20019;-76
2022/10/24 02:46:26;;;;;;;20.55;2.80;;;19.30;70.20;;;;;;7372497;19;20681;-76
2022/10/24 02:48:59;;;;;;;20.25;2.70;;;19.20;70.20;;;;;;7372116;19;20039;-76
2022/10/24 02:51:31;;;;;;;22.35;2.58;;;19.40;69.90;;;;;;7370289;19;20121;-75
2022/10/24 02:54:01;;;;;;;;;;;19.40;70.50;;;;;;7373412;19;20017;-76
2022/10/24 02:56:30;;;;;;;19.33;2.30;;;19.60;69.70;;;;;;7368715;19;20570;-76
2022/10/24 02:58:59;;;;;;;12.27;2.08;;;19.50;69.40;;;;;;7392017;19;20015;-76
2022/10/24 03:01:30;;;;;;;18.25;2.67;;;19.50;69.40;;;;;;7370774;19;20338;-76
2022/10/24 03:03:59;;;;;;;12.88;1.83;;;19.40;69.70;;;;;;7371121;19;20109;-76
2022/10/24 03:06:28;;;;;;;14.82;2.67;;;19.20;70.50;;;;;;7370207;19;20018;-76
2022/10/24 03:08:56;;;;;;;20.55;2.63;;;19.30;70.20;;;;;;7369931;19;20102;-76
2022/10/24 03:11:25;;;;;;;18.45;2.33;;;19.40;70.00;;;;;;7390444;19;20019;-76
2022/10/24 03:13:54;;;;;;;21.67;2.50;;;19.30;70.30;;;;;;7370377;19;20035;-76
2022/10/24 03:16:23;;;;;;;22.65;2.88;;;19.30;70.20;;;;;;7369498;19;20070;-76
2022/10/24 03:18:55;;;;;;;16.45;2.70;;;19.40;70.30;;;;;;7368682;19;20018;-76
2022/10/24 03:21:24;;;;;;;;;;;19.30;70.20;;;;;;7371327;19;20451;-76
2022/10/24 03:23:52;;;;;;;16.55;2.53;;;19.40;71.10;;;;;;7370057;19;20293;-77
2022/10/24 03:26:21;;;;;;;24.80;2.75;;;19.40;70.10;;;;;;7387939;19;20010;-76
2022/10/24 03:28:50;;;;;;;21.30;2.42;;;19.30;70.30;;;;;;7368567;19;20015;-76
2022/10/24 03:31:19;;;;;;;24.90;2.60;;;19.30;70.30;;;;;;7364891;19;20014;-75
2022/10/24 03:33:47;;;;;;;19.92;2.70;;;19.20;70.60;;;;;;7369350;19;20445;-76
2022/10/24 03:36:19;;;;;;;20.25;2.72;;;19.00;71.50;;;;;;7365799;19;20141;-76
2022/10/24 03:38:48;;;;;;;22.98;2.33;;;19.10;71.50;;;;;;7370303;19;20726;-76
2022/10/24 03:41:17;;;;;;;20.08;2.95;;;18.80;72.00;;;;;;7388184;19;20023;-76
2022/10/24 03:43:46;;;;;;;21.65;3.05;;;18.60;72.70;;;;;;7368707;19;20360;-76
2022/10/24 03:46:15;;;;;;;23.65;3.10;;;18.70;73.40;;;;;;7365985;19;20466;-76
2022/10/24 03:48:44;;;;;;;26.02;3.55;;;18.90;72.10;;;;;;7367991;19;20397;-76
2022/10/24 03:51:13;;;;;;;22.73;3.17;;;19.00;71.90;;;;;;7362248;19;20019;-76
2022/10/24 03:53:44;;;;;;;25.95;2.50;;;19.10;71.70;;;;;;7367128;19;20032;-76
2022/10/24 03:56:13;;;;;;;23.23;2.45;;;18.90;72.10;;;;;;7388502;19;20026;-76
2022/10/24 03:58:42;;;;;;;22.52;2.53;;;18.80;72.30;;;;;;7364615;19;20501;-76
2022/10/24 04:01:16;;;;;;;22.42;3.17;;;18.70;72.80;;;;;;7365234;19;20018;-76
2022/10/24 04:03:44;;;;;;;19.92;3.03;;;18.80;72.70;;;;;;7368001;19;20405;-76
2022/10/24 04:06:14;;;;;;;18.08;2.75;;;19.00;72.40;;;;;;7366504;19;20543;-76
2022/10/24 04:08:45;;;;;;;22.13;2.70;;;19.00;72.10;;;;;;7368333;19;20371;-76
2022/10/24 04:11:14;;;;;;;25.67;2.78;;;18.80;72.60;;;;;;7390998;19;20057;-76
2022/10/24 04:13:42;;;;;;;30.83;3.00;;;18.80;72.70;;;;;;7368685;19;20478;-76
2022/10/24 04:16:11;;;;;;;23.05;3.63;;;18.90;72.50;;;;;;7367794;19;20444;-76
2022/10/24 04:18:40;;;;;;;21.00;2.70;;;19.00;72.20;;;;;;7368774;19;20117;-76
2022/10/24 04:21:09;;;;;;;22.98;2.92;;;18.80;72.50;;;;;;7370365;19;20057;-75
2022/10/24 04:23:40;;;;;;;23.83;3.33;;;18.70;72.90;;;;;;7374389;19;20354;-75
2022/10/24 04:26:11;;;;;;;25.15;3.10;;;18.80;72.90;;;;;;7393735;19;20015;-76
2022/10/24 04:28:40;;;;;;;27.42;3.47;;;18.80;72.80;;;;;;7368365;19;20449;-76
2022/10/24 04:31:09;;;;;;;28.85;3.28;;;18.90;72.60;;;;;;7373857;19;20411;-76
2022/10/24 04:33:37;;;;;;;28.25;3.33;;;18.90;72.40;;;;;;7377241;19;20022;-75
2022/10/24 04:36:07;;;;;;;24.40;2.90;;;18.80;72.70;;;;;;7374520;19;20386;-76
2022/10/24 04:38:36;;;;;;;22.45;3.15;;;18.90;72.50;;;;;;7375364;19;20018;-76
2022/10/24 04:41:04;;;;;;;20.85;3.00;;;18.90;73.10;;;;;;7398065;19;20106;-76
2022/10/24 04:43:36;;;;;;;27.90;3.35;;;19.00;73.10;;;;;;7375599;19;20028;-77
2022/10/24 04:46:05;;;;;;;24.08;3.63;;;18.90;72.40;;;;;;7375214;19;20064;-76
2022/10/24 04:48:34;;;;;;;27.48;3.05;;;19.00;72.40;;;;;;7374149;19;20044;-76
2022/10/24 04:51:03;;;;;;;31.67;4.18;;;18.80;72.70;;;;;;7374595;19;20046;-76
2022/10/24 04:53:31;;;;;;;25.77;3.40;;;18.80;72.60;;;;;;7372684;19;20018;-76
2022/10/24 04:56:00;;;;;;;25.70;3.83;;;18.70;72.80;;;;;;7395575;19;20018;-76
2022/10/24 04:58:29;;;;;;;29.48;3.30;;;18.50;73.30;;;;;;7373138;19;20455;-75
2022/10/24 05:01:00;;;;;;;27.40;3.63;;;18.60;73.30;;;;;;7374799;19;20014;-75
2022/10/24 05:03:29;;;;;;;;;;;18.60;73.50;;;;;;7375316;19;20349;-76
2022/10/24 05:05:57;;;;;;;24.77;3.00;;;18.60;73.60;;;;;;7373950;19;19921;-76
2022/10/24 05:08:26;;;;;;;23.88;2.95;;;18.60;73.20;;;;;;7395674;19;20049;-77
2022/10/24 05:10:55;;;;;;;29.80;3.40;;;18.70;73.00;;;;;;7375279;19;20102;-76
2022/10/24 05:13:23;;;;;;;28.42;3.47;;;18.70;73.00;;;;;;7375427;19;20018;-76
2022/10/24 05:15:52;;;;;;;21.80;2.97;;;18.80;73.10;;;;;;7377262;19;20441;-76
2022/10/24 05:18:24;;;;;;;29.90;3.20;;;18.90;73.00;;;;;;7377099;19;20062;-76
2022/10/24 05:20:52;;;;;;;17.13;3.10;;;18.90;72.70;;;;;;7374686;19;20015;-76
2022/10/24 05:23:21;;;;;;;26.80;3.95;;;18.80;73.00;;;;;;7395653;19;20110;-75
2022/10/24 05:25:50;;;;;;;27.33;3.35;;;18.70;73.20;;;;;;7372181;19;20043;-76
2022/10/24 05:28:18;;;;;;;23.08;3.03;;;18.60;73.70;;;;;;7373975;19;20021;-76
2022/10/24 05:30:47;;;;;;;25.67;3.40;;;18.70;73.60;;;;;;7374823;19;20018;-76
2022/10/24 05:33:16;;;;;;;23.35;3.00;;;18.70;73.60;;;;;;7377403;19;20018;-76
2022/10/24 05:35:48;;;;;;;24.33;2.90;;;18.70;73.70;;;;;;7373019;19;20026;-76
2022/10/24 05:38:16;;;;;;;29.70;3.42;;;18.80;73.60;;;;;;7397056;19;20018;-76
2022/10/24 05:40:47;;;;;;;26.10;4.28;;;18.80;73.40;;;;;;7371395;19;20034;-76
2022/10/24 05:43:16;;;;;;;29.50;3.30;;;18.70;73.60;;;;;;7373061;19;20057;-76
2022/10/24 05:45:45;;;;;;;25.98;3.35;;;18.70;73.70;;;;;;7371651;19;20113;-76
2022/10/24 05:48:14;;;;;;;28.02;3.80;;;18.60;73.90;;;;;;7373537;19;20093;-76
2022/10/24 05:50:43;;;;;;;32.17;3.72;;;18.60;74.20;;;;;;7372519;19;20438;-76
2022/10/24 05:53:14;;;;;;;26.67;3.83;;;18.70;74.10;;;;;;7393771;19;20018;-76
2022/10/24 05:55:43;;;;;;;;;;;18.70;73.70;;;;;;7371213;19;20025;-77
2022/10/24 05:58:11;;;;;;;26.77;4.45;;;18.90;74.00;;;;;;7372138;19;19931;-76
2022/10/24 06:00:40;;;;;;;31.77;4.25;;;18.90;73.40;;;;;;7373076;19;20050;-76
2022/10/24 06:03:09;;;;;;;28.52;3.45;;;18.90;73.40;;;;;;7369895;19;20102;-75
2022/10/24 06:05:37;;;;;;;27.40;3.60;;;19.00;73.20;;;;;;7372399;19;20817;-76
2022/10/24 06:08:06;;;;;;;30.02;3.60;;;19.00;73.00;;;;;;7395040;19;20021;-76
2022/10/24 06:10:38;;;;;;;30.98;3.95;;;18.80;73.30;;;;;;7371858;19;20114;-76
2022/10/24 06:13:06;;;;;;;;;;;18.70;73.20;;;;;;7375216;19;20029;-76
2022/10/24 06:15:35;;;;;;;21.48;3.28;;;18.90;73.10;;;;;;7373022;19;20425;-76
2022/10/24 06:18:04;;;;;;;27.75;3.90;;;18.90;72.70;;;;;;7376338;19;20050;-76
2022/10/24 06:20:32;;;;;;;32.60;3.50;;;18.90;72.60;;;;;;7381224;19;20337;-76
2022/10/24 06:23:01;;;;;;;34.50;3.50;;;18.70;73.20;;;;;;7403692;19;20067;-76
2022/10/24 06:25:30;;;;;;;29.52;3.53;;;18.60;73.50;;;;;;7380940;19;20058;-76
2022/10/24 06:28:02;;;;;;;26.83;3.28;;;18.60;73.50;;;;;;7379492;19;20091;-76
2022/10/24 06:30:30;;;;;;;25.45;3.70;;;18.60;73.30;;;;;;7378472;19;20050;-76
2022/10/24 06:33:00;;;;;;;36.90;4.20;;;18.50;73.50;;;;;;7380097;19;20018;-76
2022/10/24 06:35:29;;;;;;;24.52;4.05;;;18.60;73.50;;;;;;7380031;19;20018;-76
2022/10/24 06:37:58;;;;;;;23.00;3.53;;;18.60;73.30;;;;;;7401631;19;20018;-76
2022/10/24 06:40:26;;;;;;;21.60;2.88;;;18.60;73.20;;;;;;7377490;19;20077;-76
2022/10/24 06:42:55;;;;;;;23.58;2.90;;;18.60;73.20;;;;;;7381177;19;20028;-76
2022/10/24 06:45:26;;;;;;;26.40;3.60;;;18.60;73.30;;;;;;7373335;19;20014;-76
2022/10/24 06:47:55;;;;;;;29.30;3.47;;;18.60;73.20;;;;;;7372100;19;20332;-76
2022/10/24 06:50:24;;;;;;;25.67;4.75;;;18.60;73.20;;;;;;7389178;19;20105;-75
2022/10/24 06:52:54;;;;;;;30.27;3.53;;;18.70;73.00;;;;;;7366487;19;20739;-76
2022/10/24 06:55:23;;;;;;;36.97;5.63;;;18.70;72.80;;;;;;7371206;19;20121;-77
2022/10/24 06:57:52;;;;;;;30.02;4.30;;;18.80;72.80;;;;;;7374062;19;20372;-77
2022/10/24 07:00:21;;;;;;;31.30;4.32;;;18.80;73.00;;;;;;7372075;19;20014;-77
2022/10/24 07:02:52;;;;;;;40.38;4.75;;;18.80;73.00;;;;;;7372080;19;20089;-77
2022/10/24 07:05:21;;;;;;;;;;;18.80;72.90;;;;;;7397046;19;20082;-77
2022/10/24 07:07:49;;;;;;;28.70;3.65;;;18.90;72.70;;;;;;7372324;19;20313;-80
2022/10/24 07:10:18;;;;;;;29.02;4.00;;;18.80;72.70;;;;;;7373265;19;20014;-78
2022/10/24 07:12:47;;;;;;;26.92;3.30;;;18.80;72.70;;;;;;7367325;19;20014;-77
2022/10/24 07:15:16;;;;;;;31.90;3.33;;;18.80;72.80;;;;;;7369651;19;20118;-76
2022/10/24 07:17:46;;;;;;;28.60;3.25;;;18.90;72.90;;;;;;7368900;19;20070;-77
2022/10/24 07:20:17;;;;;;;29.05;3.67;;;18.80;72.80;;;;;;7386760;19;20022;-77
2022/10/24 07:22:46;;;;;;;28.42;3.50;;;18.70;73.30;;;;;;7366989;19;20010;-77
2022/10/24 07:25:15;;;;;;;27.25;2.75;;;18.70;73.30;;;;;;7369246;19;20018;-77
2022/10/24 07:27:44;;;;;;;29.05;4.05;;;18.80;73.20;;;;;;7373701;19;20011;-77
2022/10/24 07:30:18;;;;;;;30.38;3.75;;;18.90;73.10;;;;;;7368476;19;20023;-78
2022/10/24 07:32:47;;;;;;;26.42;3.75;;;19.00;72.90;;;;;;7370570;19;20364;-78
2022/10/24 07:35:18;;;;;;;17.38;2.33;;;19.10;72.70;;;;;;7393558;19;20018;-77
2022/10/24 07:37:47;;;;;;;35.80;3.45;;;19.10;72.40;;;;;;7366501;19;20023;-76
2022/10/24 07:40:16;;;;;;;26.73;3.30;;;19.10;72.40;;;;;;7369446;19;20021;-77
2022/10/24 07:42:45;;;;;;;35.40;3.83;;;19.20;72.20;;;;;;7370603;19;20019;-77
2022/10/24 07:45:14;;;;;;;25.67;3.47;;;18.90;72.90;;;;;;7368778;19;20078;-78
2022/10/24 07:47:43;;;;;;;21.90;3.47;;;19.00;72.70;;;;;;7369618;19;20356;-77
2022/10/24 07:50:12;;;;;;;28.88;3.47;;;19.10;72.70;;;;;;7390415;19;20013;-78
2022/10/24 07:52:43;;;;;;;29.52;3.45;;;19.00;72.90;;;;;;7367556;19;20030;-77
2022/10/24 07:55:12;;;;;;;29.75;3.20;;;19.10;72.80;;;;;;7366949;19;20099;-77
2022/10/24 07:57:41;;;;;;;27.38;3.17;;;19.10;73.00;;;;;;7369872;19;20019;-78
2022/10/24 08:00:11;;;;;;;30.30;3.75;;;19.10;73.20;;;;;;7366738;19;20520;-78
2022/10/24 08:02:40;;;;;;;31.17;3.53;;;19.10;73.10;;;;;;7368018;19;20018;-77
2022/10/24 08:05:11;;;;;;;28.27;3.85;;;19.20;73.00;;;;;;7397344;19;20018;-77
2022/10/24 08:07:43;;;;;;;27.63;3.08;;;19.10;73.00;;;;;;7375059;19;20392;-78
2022/10/24 08:10:14;;;;;;;22.65;3.35;;;19.30;73.00;;;;;;7373018;19;20022;-77
2022/10/24 08:12:42;;;;;;;;;;;19.40;72.60;;;;;;7378940;19;20468;-77
2022/10/24 08:15:13;;;;;;;31.67;3.90;;;19.50;72.10;;;;;;7379945;19;20019;-77
2022/10/24 08:17:42;;;;;;;24.77;3.58;;;19.30;72.10;;;;;;7377140;19;20672;-78
2022/10/24 08:20:12;;;;;;;26.23;3.67;;;19.30;72.20;;;;;;7398903;19;20089;-78
2022/10/24 08:22:44;;;;;;;35.00;4.32;;;19.40;71.90;;;;;;7374710;19;20018;-79
2022/10/24 08:25:13;;;;;;;33.63;4.00;;;19.30;72.20;;;;;;7377084;19;20041;-78
2022/10/24 08:27:42;;;;;;;37.60;4.45;;;19.40;71.90;;;;;;7379473;19;20020;-78
2022/10/24 08:30:11;;;;;;;20.38;3.20;;;19.50;71.60;;;;;;7377603;19;20015;-78
2022/10/24 08:33:16;;;;;;;29.20;3.63;;;19.40;71.60;;;;;;7375327;19;20015;-78
2022/10/24 08:36:01;;;;;;;33.53;3.90;;;19.20;72.40;;;;;;7378706;19;20018;-78
2022/10/24 08:38:35;;;;;;;24.73;3.47;;;19.20;72.20;;;;;;7379594;19;20453;-79
2022/10/24 08:41:04;;;;;;;33.25;3.42;;;19.10;72.40;;;;;;7399547;19;20033;-78
2022/10/24 08:43:33;;;;;;;35.40;3.17;;;19.20;72.70;;;;;;7381877;19;20011;-77
2022/10/24 08:46:08;;;;;;;21.42;3.45;;;19.00;73.50;;;;;;7379570;19;20010;-78
2022/10/24 08:48:45;;;;;;;30.88;3.85;;;19.10;73.20;;;;;;7386452;19;20018;-78
2022/10/24 08:51:26;;;;;;;43.75;4.30;;;19.10;73.40;;;;;;7383198;19;20440;-78
2022/10/24 08:53:58;;;;;;;;;;;19.20;74.10;;;;;;7377719;19;20018;-78
2022/10/24 08:56:31;;;;;;;26.55;3.55;;;19.30;73.30;;;;;;7391269;19;19923;-78
2022/10/24 08:59:02;;;;;;;25.60;3.65;;;19.40;72.90;;;;;;7394667;19;20011;-79
2022/10/24 09:01:37;;;;;;;31.17;3.90;;;19.40;73.00;;;;;;7376278;19;20446;-78
2022/10/24 09:04:10;;;;;;;23.42;3.42;;;19.20;72.70;;;;;;7381878;19;20082;-78
2022/10/24 09:06:39;;;;;;;34.25;3.40;;;19.30;72.80;;;;;;7378280;19;20090;-78
2022/10/24 09:09:19;;;;;;;31.13;3.92;;;19.30;72.40;;;;;;7379604;19;20020;-78
2022/10/24 09:11:53;;;;;;;31.65;3.45;;;19.50;71.90;;;;;;7380884;19;20102;-78
2022/10/24 09:14:23;;;;;;;25.55;3.55;;;19.60;71.70;;;;;;7397580;19;20643;-78
2022/10/24 09:16:55;;;;;;;23.40;3.25;;;18.80;73.40;;;;;;7372651;19;20086;-78
2022/10/24 09:19:25;;;;;;;32.78;3.90;;;18.90;73.60;;;;;;7377570;19;20014;-78
2022/10/24 09:21:56;;;;;;;25.73;3.40;;;18.70;74.00;;;;;;7374568;19;20010;-78
2022/10/24 09:24:35;;;;;;;22.47;2.90;;;19.00;74.00;;;;;;7374274;19;20485;-78
2022/10/24 09:27:07;;;;;;;31.10;2.92;;;19.20;73.30;;;;;;7376174;19;20014;-78
2022/10/24 09:29:36;;;;;;;24.40;2.88;;;19.30;72.60;;;;;;7375318;19;20218;-78
2022/10/24 09:32:05;;;;;;;30.25;3.53;;;19.40;72.60;;;;;;7395887;19;20026;-78
2022/10/24 09:34:34;;;;;;;32.42;4.03;;;19.30;73.10;;;;;;7372619;19;20015;-78
2022/10/24 09:37:03;;;;;;;27.75;3.60;;;19.50;73.00;;;;;;7376178;19;20084;-78
2022/10/24 09:39:36;;;;;;;22.30;3.15;;;19.60;72.60;;;;;;7373601;19;20019;-78
2022/10/24 09:42:05;;;;;;;28.15;3.53;;;19.60;72.20;;;;;;7373381;19;20046;-77
2022/10/24 09:44:47;;;;;;;28.33;3.92;;;19.50;73.00;;;;;;7373654;19;20025;-78
2022/10/24 09:47:38;;;;;;;;;;;;;;;;;;;;;
2022/10/24 09:50:20;;;;;;;29.13;3.78;;;19.50;72.40;;;;;;7372019;19;20813;-78
2022/10/24 09:52:54;;;;;;;26.98;3.45;;;19.70;72.20;;;;;;7373465;19;20016;-78
2022/10/24 09:55:56;;;;;;;22.92;3.13;;;19.60;72.20;;;;;;7376463;19;20081;-79
2022/10/24 09:59:18;;;;;;;32.88;4.30;;;19.50;72.50;;;;;;7374783;19;20018;-79
2022/10/24 10:01:54;;;;;;;29.67;3.53;;;19.50;72.10;;;;;;7373851;19;20353;-78
2022/10/24 10:04:30;;;;;;;19.98;3.20;;;19.60;71.90;;;;;;7373966;19;20022;-79
2022/10/24 10:07:12;;;;;;;20.33;2.97;;;19.40;73.10;;;;;;7374995;19;20014;-78
2022/10/24 10:09:48;;;;;;;21.15;2.90;;;19.60;72.00;;;;;;7372098;19;20123;-78
2022/10/24 10:12:33;;;;;;;21.85;3.20;;;19.50;71.70;;;;;;7372056;19;20010;-79
2022/10/24 10:15:04;;;;;;;22.65;3.55;;;19.60;72.10;;;;;;7376604;19;20025;-77
2022/10/24 10:17:34;;;;;;;20.95;3.03;;;19.70;72.00;;;;;;7371450;19;20082;-79
2022/10/24 10:20:02;;;;;;;25.80;4.07;;;19.80;71.90;;;;;;7393789;19;20101;-79
2022/10/24 10:22:33;;;;;;;19.48;3.28;;;19.70;72.50;;;;;;7374221;19;20015;-78
2022/10/24 10:25:02;;;;;;;19.55;3.38;;;19.60;72.30;;;;;;7380641;19;20045;-78
2022/10/24 10:27:37;;;;;;;27.60;3.05;;;19.60;74.00;;;;;;7371411;19;20077;-75
2022/10/24 10:30:20;;;;;;;28.02;3.42;;;19.60;72.50;;;;;;7372458;19;20046;-77
2022/10/24 10:33:02;;;;;;;25.70;3.30;;;19.70;72.80;;;;;;7371260;19;20032;-76
2022/10/24 10:35:39;;;;;;;21.30;2.95;;;19.90;72.20;;;;;;7367560;19;20015;-76
2022/10/24 10:38:21;;;;;;;24.45;3.33;;;20.00;71.50;;;;;;7391848;19;20117;-75
2022/10/24 10:40:53;;;;;;;18.17;3.05;;;20.10;71.60;;;;;;7357163;19;20021;-76
2022/10/24 10:43:34;;;;;;;22.08;3.13;;;20.30;71.00;;;;;;7369073;19;20109;-75
2022/10/24 10:46:15;;;;;;;20.73;3.33;;;20.50;70.60;;;;;;7366846;19;20078;-75
2022/10/24 10:48:57;;;;;;;21.77;2.67;;;20.40;69.90;;;;;;7365984;19;20018;-76
2022/10/24 10:51:38;;;;;;;19.77;2.90;;;20.50;69.70;;;;;;7369671;19;20086;-76
2022/10/24 10:54:19;;;;;;;23.25;3.00;;;20.40;70.30;;;;;;7369270;19;20018;-77
2022/10/24 10:57:13;;;;;;;22.98;3.22;;;20.40;70.90;;;;;;7365672;19;20016;-75
2022/10/24 10:59:55;;;;;;;26.60;3.55;;;20.50;69.90;;;;;;7372414;19;20014;-80
2022/10/24 11:02:46;;;;;;;23.05;3.03;;;20.60;69.20;;;;;;7390513;19;20045;-78
2022/10/24 11:05:28;;;;;;;23.70;3.72;;;20.30;70.10;;;;;;7371003;19;20018;-76
2022/10/24 11:08:08;;;;;;;26.40;3.35;;;20.50;69.80;;;;;;7375003;19;20014;-76
2022/10/24 11:10:41;;;;;;;25.15;3.38;;;20.60;69.40;;;;;;7368699;19;20029;-76
2022/10/24 11:13:17;;;;;;;22.05;3.17;;;20.40;69.70;;;;;;7372083;19;20020;-75
2022/10/24 11:15:54;;;;;;;22.35;3.30;;;20.10;70.70;;;;;;7368856;19;20039;-75
2022/10/24 11:18:27;;;;;;;16.13;2.53;;;20.20;70.80;;;;;;7368215;19;20129;-77
2022/10/24 11:21:00;;;;;;;16.90;3.55;;;20.40;70.30;;;;;;7371449;19;20006;-76
2022/10/24 11:23:35;;;;;;;17.33;2.50;;;20.10;71.40;;;;;;7358394;19;20018;-76
2022/10/24 11:26:07;;;;;;;21.70;3.30;;;20.10;72.10;;;;;;7391521;19;20018;-76
2022/10/24 11:28:42;;;;;;;18.08;2.25;;;20.10;72.50;;;;;;7369960;19;20007;-76
2022/10/24 11:31:21;;;;;;;15.10;2.58;;;20.10;72.60;;;;;;7370669;19;20450;-76
2022/10/24 11:33:58;;;;;;;17.13;2.58;;;20.30;72.00;;;;;;7369597;19;20021;-77
2022/10/24 11:36:33;;;;;;;20.10;2.80;;;20.50;71.50;;;;;;7370985;19;20038;-75
2022/10/24 11:39:07;;;;;;;17.05;3.28;;;20.40;71.90;;;;;;7368238;19;20749;-76
2022/10/24 11:41:46;;;;;;;23.52;2.53;;;20.30;72.50;;;;;;7367656;19;20109;-75
2022/10/24 11:44:36;;;;;;;19.02;3.03;;;20.10;73.30;;;;;;7390374;19;20018;-76
2022/10/24 11:47:30;;;;;;;19.10;2.83;;;20.40;73.00;;;;;;7368162;19;20093;-76
2022/10/24 11:50:08;;;;;;;17.33;2.47;;;20.50;72.10;;;;;;7368138;19;20014;-76
2022/10/24 11:52:43;;;;;;;23.45;3.03;;;20.40;71.50;;;;;;7368111;19;20613;-76
2022/10/24 11:55:18;;;;;;;19.45;2.60;;;20.70;71.60;;;;;;7367839;19;20014;-75
2022/10/24 11:57:50;;;;;;;23.15;2.85;;;20.70;70.10;;;;;;7368488;19;20098;-75
2022/10/24 12:00:22;;;;;;;18.33;2.30;;;20.80;70.50;;;;;;7370146;19;20018;-75
2022/10/24 12:03:22;;;;;;;16.42;2.42;;;20.90;69.30;;;;;;7370315;19;20022;-76
2022/10/24 12:06:11;;;;;;;18.40;3.17;;;20.80;69.70;;;;;;7370855;19;20074;-75
2022/10/24 12:09:08;;;;;;;20.58;3.15;;;21.00;69.30;;;;;;7372801;19;20015;-75
2022/10/24 12:11:58;;;;;;;19.08;2.85;;;21.10;68.40;;;;;;7368812;19;20510;-76
2022/10/24 12:14:49;;;;;;;19.92;3.75;;;21.30;67.90;;;;;;7390682;19;20010;-76
2022/10/24 12:17:42;;;;;;;15.23;2.60;;;21.40;67.70;;;;;;7369424;19;20014;-76
2022/10/24 12:20:19;;;;;;;13.15;2.40;;;21.30;67.00;;;;;;7370053;19;20026;-76
2022/10/24 12:22:49;;;;;;;14.82;2.22;;;21.30;66.60;;;;;;7370206;19;20147;-76
2022/10/24 12:25:31;;;;;;;19.75;2.20;;;21.30;66.40;;;;;;7370564;19;20078;-76
2022/10/24 12:28:01;;;;;;;15.35;2.30;;;21.20;66.40;;;;;;7370952;19;20040;-77
2022/10/24 12:30:33;;;;;;;21.40;3.03;;;21.10;66.70;;;;;;7369849;19;20010;-76
2022/10/24 12:33:12;;;;;;;18.60;2.75;;;20.90;67.50;;;;;;7369028;19;20027;-76
2022/10/24 12:35:56;;;;;;;16.92;2.40;;;20.90;67.70;;;;;;7368045;19;20576;-76
2022/10/24 12:39:10;;;;;;;17.95;2.42;;;21.00;67.80;;;;;;7389056;19;20018;-76
2022/10/24 12:41:45;;;;;;;17.55;2.53;;;20.70;68.30;;;;;;7266085;19;2004439;-76
2022/10/24 12:44:44;;;;;;;17.15;2.50;;;20.80;68.20;;;;;;7390887;19;20082;-76
2022/10/24 12:47:38;;;;;;;13.77;1.92;;;20.20;69.50;;;;;;7368830;19;20010;-76
2022/10/24 12:50:37;;;;;;;21.00;2.22;;;20.00;71.00;;;;;;7368474;19;20029;-77
2022/10/24 12:53:19;;;;;;;21.50;2.65;;;20.10;71.90;;;;;;7375683;19;20014;-77
2022/10/24 12:56:14;;;;;;;21.48;2.42;;;20.20;71.50;;;;;;7376201;19;20010;-76
2022/10/24 12:58:44;;;;;;;17.38;2.42;;;20.20;72.40;;;;;;7372236;19;20171;-76
2022/10/24 13:01:26;;;;;;;13.68;2.30;;;20.40;72.40;;;;;;7375136;19;20022;-77
2022/10/24 13:04:09;;;;;;;;;;;20.30;72.70;;;;;;7376275;19;20457;-76
2022/10/24 13:06:50;;;;;;;20.63;2.83;;;20.40;73.00;;;;;;7372559;19;19938;-76
2022/10/24 13:09:43;;;;;;;23.10;2.35;;;20.50;72.70;;;;;;7372471;19;20021;-75
2022/10/24 13:12:25;;;;;;;18.58;3.00;;;20.50;72.40;;;;;;7372968;19;20321;-76
2022/10/24 13:15:16;;;;;;;20.27;3.03;;;20.60;72.20;;;;;;7374227;19;20078;-77